Time;durP1;ratioP1;P1;durP2;ratioP2;P2;SDS_P1;SDS_P2;PMS_P1;PMS_P2;Temp;Humidity;BMP_temperature;BMP_pressure;BME280_temperature;BME280_humidity;BME280_pressure;Samples;Min_cycle;Max_cycle;Signal;HPM_P1;HPM_P2
2023/10/27 00:01:14;;;;;;;4.43;4.22;;;;;;;7.37;100.00;98595.16;5955817;29;20058;-93
2023/10/27 00:04:19;;;;;;;6.63;6.15;;;;;;;7.40;100.00;98602.56;5969058;29;20055;-95
2023/10/27 00:07:23;;;;;;;5.40;5.10;;;;;;;7.41;100.00;98597.28;5954128;29;20115;-93
2023/10/27 00:10:25;;;;;;;6.25;5.90;;;;;;;7.40;100.00;98600.78;5952942;29;20047;-93
2023/10/27 00:13:27;;;;;;;4.32;4.20;;;;;;;7.41;100.00;98597.28;5953368;29;20054;-92
2023/10/27 00:16:29;;;;;;;7.07;6.55;;;;;;;7.41;100.00;98591.34;5965189;29;20088;-93
2023/10/27 00:19:31;;;;;;;4.10;3.90;;;;;;;7.37;100.00;98580.50;5955401;29;20053;-94
2023/10/27 00:22:33;;;;;;;4.63;4.43;;;;;;;7.37;100.00;98574.56;5951653;29;20074;-94
2023/10/27 00:25:36;;;;;;;4.50;4.30;;;;;;;7.38;100.00;98576.16;5955763;29;20054;-93
2023/10/27 00:28:38;;;;;;;3.83;3.72;;;;;;;7.37;100.00;98577.94;5946078;29;20059;-93
2023/10/27 00:31:41;;;;;;;4.53;4.30;;;;;;;7.44;100.00;98575.59;5955623;29;20082;-93
2023/10/27 00:34:43;;;;;;;4.75;4.60;;;;;;;7.45;100.00;98579.75;5969011;29;20584;-93
2023/10/27 00:37:45;;;;;;;5.93;4.53;;;;;;;7.44;100.00;98573.00;5968908;29;20110;-93
2023/10/27 00:40:47;;;;;;;4.75;4.45;;;;;;;7.44;100.00;98571.25;5955271;29;20515;-92
2023/10/27 00:43:49;;;;;;;3.70;3.60;;;;;;;7.41;100.00;98568.16;5952744;29;20051;-92
2023/10/27 00:46:55;;;;;;;4.30;4.15;;;;;;;7.41;100.00;98565.59;5916015;29;20083;-93
2023/10/27 00:49:59;;;;;;;4.60;4.40;;;;;;;7.41;100.00;98561.25;5969599;29;20053;-93
2023/10/27 00:53:01;;;;;;;4.07;3.97;;;;;;;7.44;100.00;98566.09;5954654;29;20064;-93
2023/10/27 00:56:04;;;;;;;4.57;4.38;;;;;;;7.49;100.00;98563.06;5969214;29;20065;-93
2023/10/27 00:59:06;;;;;;;4.47;4.28;;;;;;;7.47;100.00;98560.63;5960273;29;20054;-93
2023/10/27 01:02:09;;;;;;;4.00;3.90;;;;;;;7.48;100.00;98559.69;5968073;29;20048;-92
2023/10/27 01:05:11;;;;;;;4.13;3.92;;;;;;;7.46;100.00;98565.94;5957303;29;20164;-93
2023/10/27 01:08:13;;;;;;;4.55;4.35;;;;;;;7.43;100.00;98561.91;5971401;29;20047;-93
2023/10/27 01:11:18;;;;;;;4.07;3.97;;;;;;;7.44;100.00;98560.13;5958543;29;20046;-93
2023/10/27 01:14:20;;;;;;;4.57;4.38;;;;;;;7.42;100.00;98560.28;5962412;29;20042;-93
2023/10/27 01:17:22;;;;;;;4.30;4.10;;;;;;;7.40;100.00;98564.75;5956201;29;20383;-93
2023/10/27 01:20:25;;;;;;;4.18;4.07;;;;;;;7.40;100.00;98562.19;5955838;29;20128;-93
2023/10/27 01:23:28;;;;;;;3.80;3.70;;;;;;;7.39;100.00;98559.78;5956123;29;20840;-93
2023/10/27 01:26:30;;;;;;;4.22;4.03;;;;;;;7.39;100.00;98570.06;5968188;29;20043;-93
2023/10/27 01:29:32;;;;;;;5.22;4.82;;;;;;;7.31;100.00;98581.91;5957003;29;20047;-93
2023/10/27 01:32:40;;;;;;;4.30;4.20;;;;;;;7.29;100.00;98580.44;5957985;29;20039;-93
2023/10/27 01:35:42;;;;;;;4.55;4.38;;;;;;;7.24;100.00;98570.59;5971442;29;20104;-93
2023/10/27 01:38:44;;;;;;;3.92;3.83;;;;;;;7.25;100.00;98554.19;5958631;29;20047;-94
2023/10/27 01:41:46;;;;;;;5.65;5.25;;;;;;;7.27;100.00;98541.19;5973881;29;20062;-93
2023/10/27 01:44:48;;;;;;;5.05;4.88;;;;;;;7.26;100.00;98537.00;5954963;29;20043;-93
2023/10/27 01:47:50;;;;;;;5.25;4.85;;;;;;;7.28;100.00;98538.47;5947045;29;20441;-93
2023/10/27 01:50:54;;;;;;;3.92;3.83;;;;;;;7.26;100.00;98537.81;5971919;29;20239;-93
2023/10/27 01:53:56;;;;;;;4.00;3.90;;;;;;;7.24;100.00;98533.78;5955745;29;20394;-93
2023/10/27 01:56:58;;;;;;;3.35;3.25;;;;;;;7.27;100.00;98538.63;5958653;29;20055;-93
2023/10/27 02:00:00;;;;;;;4.07;3.97;;;;;;;7.27;100.00;98542.00;5955640;29;20521;-93
2023/10/27 02:03:13;;;;;;;4.20;4.00;;;;;;;7.23;100.00;98545.84;5956286;29;20063;-92
2023/10/27 02:06:22;;;;;;;4.20;4.00;;;;;;;7.23;100.00;98550.16;5956139;29;20502;-93
2023/10/27 02:09:25;;;;;;;3.77;3.67;;;;;;;7.22;100.00;98548.53;5957175;29;20051;-93
2023/10/27 02:12:27;;;;;;;4.22;4.13;;;;;;;7.26;100.00;98552.44;5957098;29;20553;-93
2023/10/27 02:15:28;;;;;;;4.03;3.92;;;;;;;7.29;100.00;98547.78;5971382;29;20348;-94
2023/10/27 02:18:30;;;;;;;4.15;3.95;;;;;;;7.31;100.00;98560.53;5941606;29;20119;-94
2023/10/27 02:21:32;;;;;;;3.90;3.80;;;;;;;7.29;100.00;98557.28;5954637;29;20082;-93
2023/10/27 02:24:34;;;;;;;4.70;4.50;;;;;;;7.27;100.00;98552.28;5965539;29;20043;-94
2023/10/27 02:27:40;;;;;;;4.20;4.10;;;;;;;7.31;100.00;98551.03;5957418;29;20054;-94
2023/10/27 02:30:43;;;;;;;4.38;4.28;;;;;;;7.28;100.00;98558.25;5971280;29;20046;-94
2023/10/27 02:33:45;;;;;;;3.40;3.30;;;;;;;7.29;100.00;98549.56;5970937;29;20051;-95
2023/10/27 02:36:47;;;;;;;3.92;3.83;;;;;;;7.26;100.00;98548.09;5969807;29;20574;-94
2023/10/27 02:39:49;;;;;;;3.65;3.50;;;;;;;7.24;100.00;98536.34;5968853;29;20058;-94
2023/10/27 02:42:51;;;;;;;4.43;4.22;;;;;;;7.23;100.00;98537.28;5952936;29;20061;-95
2023/10/27 02:46:02;;;;;;;3.30;3.20;;;;;;;7.24;100.00;98536.34;5956607;29;20133;-94
2023/10/27 02:49:04;;;;;;;4.43;4.22;;;;;;;7.22;100.00;98526.19;5937930;29;20050;-94
2023/10/27 02:52:06;;;;;;;4.82;4.63;;;;;;;7.22;100.00;98527.97;5953776;29;20038;-94
2023/10/27 02:55:09;;;;;;;4.40;4.22;;;;;;;7.22;100.00;98536.47;5965670;29;20053;-94
2023/10/27 02:58:12;;;;;;;3.80;3.70;;;;;;;7.21;100.00;98531.50;5945840;29;20090;-94
2023/10/27 03:01:15;;;;;;;4.45;4.25;;;;;;;7.17;100.00;98532.75;5953182;29;20114;-94
2023/10/27 03:04:19;;;;;;;4.88;4.68;;;;;;;7.12;100.00;98526.28;5969641;29;20051;-95
2023/10/27 03:07:21;;;;;;;3.90;3.80;;;;;;;7.12;100.00;98531.41;5952822;29;20055;-94
2023/10/27 03:10:23;;;;;;;4.18;4.03;;;;;;;7.10;100.00;98533.34;5961922;29;20047;-94
2023/10/27 03:13:32;;;;;;;4.38;4.20;;;;;;;7.06;100.00;98533.78;5957156;29;20043;-94
2023/10/27 03:16:35;;;;;;;4.25;4.15;;;;;;;6.98;100.00;98526.81;5955993;29;20050;-95
2023/10/27 03:19:39;;;;;;;3.95;3.85;;;;;;;6.98;100.00;98531.13;5954726;29;20047;-94
2023/10/27 03:22:41;;;;;;;4.00;3.80;;;;;;;6.92;100.00;98527.38;5962952;29;20513;-94
2023/10/27 03:25:43;;;;;;;4.95;4.75;;;;;;;6.90;100.00;98526.72;5949606;29;20073;-95
2023/10/27 03:28:45;;;;;;;4.25;4.05;;;;;;;6.85;100.00;98514.31;5970996;29;20138;-94
2023/10/27 03:31:50;;;;;;;6.65;5.20;;;;;;;6.84;100.00;98524.75;5948928;29;20091;-94
2023/10/27 03:34:52;;;;;;;4.05;3.92;;;;;;;6.84;100.00;98515.28;5947210;29;20043;-94
2023/10/27 03:37:54;;;;;;;4.03;3.92;;;;;;;6.83;100.00;98526.53;5952713;29;20122;-94
2023/10/27 03:40:56;;;;;;;3.95;3.85;;;;;;;6.84;100.00;98527.31;5955258;29;20233;-94
2023/10/27 03:43:58;;;;;;;5.00;4.80;;;;;;;6.87;100.00;98532.97;5953536;29;20047;-94
2023/10/27 03:47:00;;;;;;;3.58;3.47;;;;;;;6.88;100.00;98529.47;5966854;29;20055;-94
2023/10/27 03:50:03;;;;;;;5.45;5.15;;;;;;;6.93;100.00;98539.28;5955413;29;20098;-93
2023/10/27 03:53:08;;;;;;;4.22;4.10;;;;;;;6.97;100.00;98534.66;5952848;29;20812;-94
2023/10/27 03:56:10;;;;;;;5.72;5.43;;;;;;;6.97;100.00;98530.31;5956263;29;20043;-94
2023/10/27 03:59:12;;;;;;;5.75;5.55;;;;;;;7.04;100.00;98522.84;5940215;29;20054;-94
2023/10/27 04:02:15;;;;;;;6.13;5.70;;;;;;;7.08;100.00;98529.28;5955445;29;20406;-94
2023/10/27 04:05:18;;;;;;;5.22;4.78;;;;;;;7.09;100.00;98534.28;5955146;29;20111;-95
2023/10/27 04:08:20;;;;;;;5.75;5.50;;;;;;;7.11;100.00;98526.44;5949655;29;20093;-94
2023/10/27 04:11:22;;;;;;;4.97;4.78;;;;;;;7.18;100.00;98524.06;5947624;29;20050;-94
2023/10/27 04:14:25;;;;;;;5.25;4.93;;;;;;;7.16;100.00;98526.78;5956360;29;20108;-94
2023/10/27 04:17:28;;;;;;;5.32;5.05;;;;;;;7.19;100.00;98520.53;5962256;29;20054;-94
2023/10/27 04:20:30;;;;;;;4.55;4.35;;;;;;;7.19;100.00;98516.19;5948559;29;20086;-94
2023/10/27 04:23:32;;;;;;;5.70;5.40;;;;;;;7.19;100.00;98510.25;5953005;29;20047;-94
2023/10/27 04:26:36;;;;;;;4.32;4.15;;;;;;;7.19;100.00;98505.91;5951250;29;20417;-94
2023/10/27 04:29:38;;;;;;;4.97;4.75;;;;;;;7.17;100.00;98501.88;5968010;29;20046;-95
2023/10/27 04:32:40;;;;;;;5.22;4.97;;;;;;;7.12;100.00;98507.47;5969318;29;20038;-94
2023/10/27 04:35:44;;;;;;;5.03;4.85;;;;;;;7.14;100.00;98499.59;5972559;29;20532;-94
2023/10/27 04:38:46;;;;;;;4.50;4.30;;;;;;;7.12;100.00;98497.97;5943971;29;20475;-94
2023/10/27 04:41:48;;;;;;;5.00;4.78;;;;;;;7.09;100.00;98506.00;5970200;29;20192;-94
2023/10/27 04:44:50;;;;;;;3.83;3.72;;;;;;;7.08;100.00;98501.81;5957455;29;20157;-94
2023/10/27 04:47:53;;;;;;;4.80;4.60;;;;;;;7.11;100.00;98498.94;5949949;29;20047;-94
2023/10/27 04:50:58;;;;;;;4.97;4.78;;;;;;;7.12;100.00;98495.41;5973689;29;20051;-94
2023/10/27 04:54:01;;;;;;;5.15;4.82;;;;;;;7.15;100.00;98502.00;5958620;29;20141;-94
2023/10/27 04:57:03;;;;;;;4.18;3.97;;;;;;;7.16;100.00;98502.84;5973799;29;20055;-94
2023/10/27 05:00:08;;;;;;;3.90;3.80;;;;;;;7.16;100.00;98507.97;5957429;29;20046;-94
2023/10/27 05:03:10;;;;;;;4.60;4.38;;;;;;;7.14;100.00;98497.03;5959985;29;20050;-94
2023/10/27 05:06:12;;;;;;;4.93;4.70;;;;;;;7.11;100.00;98498.94;5970618;29;20091;-94
2023/10/27 05:09:18;;;;;;;4.85;4.65;;;;;;;7.10;100.00;98499.91;5959033;29;20387;-94
2023/10/27 05:12:20;;;;;;;4.95;4.75;;;;;;;7.07;100.00;98494.25;5957724;29;20114;-94
2023/10/27 05:15:22;;;;;;;5.53;5.22;;;;;;;7.05;100.00;98491.00;5958193;29;20561;-94
2023/10/27 05:18:25;;;;;;;5.68;5.43;;;;;;;7.05;100.00;98485.84;5972055;29;20337;-93
2023/10/27 05:21:27;;;;;;;6.35;6.05;;;;;;;7.01;100.00;98490.50;5956345;29;20130;-94
2023/10/27 05:24:29;;;;;;;4.75;4.57;;;;;;;7.01;100.00;98495.66;5959010;29;20502;-93
2023/10/27 05:27:33;;;;;;;4.82;4.53;;;;;;;7.00;100.00;98506.88;5956561;29;20433;-93
2023/10/27 05:30:36;;;;;;;4.47;4.28;;;;;;;7.00;100.00;98496.59;5970139;29;20494;-94
2023/10/27 05:33:39;;;;;;;5.53;5.22;;;;;;;7.00;100.00;98495.78;5953902;29;20383;-93
2023/10/27 05:36:41;;;;;;;4.40;4.03;;;;;;;6.98;100.00;98493.38;5958356;29;20047;-94
2023/10/27 05:39:43;;;;;;;5.72;5.50;;;;;;;7.00;100.00;98499.16;5969659;29;20411;-95
2023/10/27 05:42:46;;;;;;;5.13;4.80;;;;;;;6.99;100.00;98492.41;5956540;29;20051;-94
2023/10/27 05:45:48;;;;;;;5.28;4.60;;;;;;;6.97;100.00;98489.19;5972235;29;20509;-93
2023/10/27 05:48:50;;;;;;;5.40;5.10;;;;;;;6.96;100.00;98490.13;5956999;29;20561;-95
2023/10/27 05:51:52;;;;;;;5.80;5.28;;;;;;;6.97;100.00;98496.09;5958836;29;20130;-93
2023/10/27 05:54:57;;;;;;;4.53;4.32;;;;;;;6.97;100.00;98486.59;5953761;29;20063;-94
2023/10/27 05:57:59;;;;;;;4.40;4.18;;;;;;;6.99;100.00;98482.13;5971816;29;20153;-93
2023/10/27 06:01:03;;;;;;;5.50;5.10;;;;;;;6.99;100.00;98483.91;5954413;29;20058;-93
2023/10/27 06:04:08;;;;;;;4.35;4.15;;;;;;;7.01;100.00;98485.34;5956215;29;20486;-93
2023/10/27 06:07:10;;;;;;;4.32;4.13;;;;;;;7.01;100.00;98484.56;5958670;29;20383;-93
2023/10/27 06:10:12;;;;;;;4.60;4.30;;;;;;;7.01;100.00;98485.34;5972642;29;20046;-94
2023/10/27 06:13:14;;;;;;;5.70;5.15;;;;;;;7.00;100.00;98480.34;5956570;29;20062;-94
2023/10/27 06:16:16;;;;;;;5.70;5.35;;;;;;;7.01;100.00;98490.50;5971880;29;20043;-94
2023/10/27 06:19:20;;;;;;;4.35;4.25;;;;;;;7.05;100.00;98491.00;5972264;29;20055;-94
2023/10/27 06:22:22;;;;;;;4.90;4.70;;;;;;;7.07;100.00;98495.03;5955151;29;20089;-94
2023/10/27 06:25:27;;;;;;;6.00;5.70;;;;;;;7.06;100.00;98490.88;5958542;29;20577;-94
2023/10/27 06:28:29;;;;;;;4.53;4.38;;;;;;;7.07;100.00;98500.19;5955633;29;20050;-93
2023/10/27 06:31:32;;;;;;;5.38;4.97;;;;;;;7.10;100.00;98506.78;5970981;29;20046;-94
2023/10/27 06:34:34;;;;;;;5.53;5.10;;;;;;;7.10;100.00;98502.47;5958147;29;20498;-94
2023/10/27 06:37:37;;;;;;;4.30;4.20;;;;;;;7.16;100.00;98503.66;5967773;29;20047;-94
2023/10/27 06:40:39;;;;;;;6.05;5.63;;;;;;;7.20;100.00;98504.13;5971671;29;20039;-94
2023/10/27 06:43:41;;;;;;;5.70;5.32;;;;;;;7.22;100.00;98507.38;5966125;29;20101;-93
2023/10/27 06:46:45;;;;;;;5.20;4.75;;;;;;;7.21;100.00;98508.34;5970889;29;20050;-94
2023/10/27 06:49:46;;;;;;;4.47;4.28;;;;;;;7.22;100.00;98509.94;5957591;29;20066;-94
2023/10/27 06:52:49;;;;;;;5.43;5.10;;;;;;;7.24;100.00;98503.69;5955961;29;20051;-93
2023/10/27 06:55:51;;;;;;;5.18;4.88;;;;;;;7.31;100.00;98514.22;5957408;29;20263;-94
2023/10/27 06:58:54;;;;;;;5.20;5.00;;;;;;;7.31;100.00;98509.06;5954370;29;20053;-94
2023/10/27 07:01:55;;;;;;;4.90;4.55;;;;;;;7.35;100.00;98523.22;5965374;29;20062;-94
2023/10/27 07:04:58;;;;;;;4.90;4.70;;;;;;;7.38;100.00;98510.06;5962170;29;20054;-94
2023/10/27 07:08:00;;;;;;;4.68;4.47;;;;;;;7.42;100.00;98513.94;5954537;29;20498;-94
2023/10/27 07:11:03;;;;;;;6.05;5.47;;;;;;;7.46;100.00;98514.47;5961528;29;20051;-93
2023/10/27 07:14:05;;;;;;;5.85;5.45;;;;;;;7.52;100.00;98521.56;5954169;29;20042;-94
2023/10/27 07:17:07;;;;;;;5.20;5.00;;;;;;;7.55;100.00;98516.13;5954538;29;20047;-94
2023/10/27 07:20:10;;;;;;;5.63;5.40;;;;;;;7.59;100.00;98519.22;5955306;29;20039;-94
2023/10/27 07:23:13;;;;;;;4.97;4.78;;;;;;;7.62;100.00;98522.28;5955114;29;20059;-93
2023/10/27 07:26:17;;;;;;;4.63;4.53;;;;;;;7.65;100.00;98523.75;5957103;29;20459;-93
2023/10/27 07:29:22;;;;;;;5.82;5.53;;;;;;;7.67;100.00;98519.25;5955179;29;20435;-94
2023/10/27 07:32:31;;;;;;;5.35;5.15;;;;;;;7.70;100.00;98529.25;5955292;29;20042;-94
2023/10/27 07:35:33;;;;;;;4.50;4.35;;;;;;;7.71;100.00;98528.31;5956246;29;20087;-93
2023/10/27 07:38:35;;;;;;;5.22;5.03;;;;;;;7.75;100.00;98533.00;5955263;29;20505;-94
2023/10/27 07:41:37;;;;;;;5.38;5.07;;;;;;;7.77;100.00;98532.81;5957260;29;20192;-94
2023/10/27 07:44:40;;;;;;;4.80;4.60;;;;;;;7.80;100.00;98539.44;5958300;29;20035;-93
2023/10/27 07:47:43;;;;;;;4.72;4.53;;;;;;;7.83;100.00;98537.38;5956832;29;20160;-93
2023/10/27 07:50:46;;;;;;;4.90;4.63;;;;;;;7.89;100.00;98541.91;5969638;29;20043;-93
2023/10/27 07:53:48;;;;;;;6.38;5.97;;;;;;;7.93;100.00;98535.50;5954996;29;20040;-94
2023/10/27 07:56:50;;;;;;;6.18;5.93;;;;;;;7.96;100.00;98535.19;5942169;29;20062;-94
2023/10/27 07:59:52;;;;;;;5.40;5.15;;;;;;;7.99;100.00;98542.59;5953075;29;20046;-92
2023/10/27 08:02:54;;;;;;;6.20;5.70;;;;;;;8.01;100.00;98544.25;5965162;29;20540;-93
2023/10/27 08:05:56;;;;;;;5.68;5.07;;;;;;;8.02;100.00;98545.84;5965772;29;20111;-94
2023/10/27 08:08:59;;;;;;;5.53;5.22;;;;;;;8.02;100.00;98548.41;5965336;29;20051;-93
2023/10/27 08:12:01;;;;;;;7.95;5.60;;;;;;;8.04;100.00;98551.66;5952969;29;20049;-93
2023/10/27 08:15:10;;;;;;;7.65;5.05;;;;;;;8.08;100.00;98550.41;5966929;29;20043;-93
2023/10/27 08:18:13;;;;;;;6.53;6.00;;;;;;;8.11;100.00;98550.88;5967212;29;20054;-94
2023/10/27 08:21:15;;;;;;;5.93;5.63;;;;;;;8.16;100.00;98551.22;5956119;29;20135;-94
2023/10/27 08:24:20;;;;;;;5.32;5.13;;;;;;;8.18;100.00;98551.06;5968892;29;20134;-94
2023/10/27 08:27:23;;;;;;;5.20;5.00;;;;;;;8.20;100.00;98544.00;5950585;29;20354;-94
2023/10/27 08:30:27;;;;;;;5.20;5.00;;;;;;;8.25;100.00;98549.50;5968143;29;20090;-93
2023/10/27 08:33:29;;;;;;;5.03;4.82;;;;;;;8.26;100.00;98556.25;5970123;29;20051;-94
2023/10/27 08:36:31;;;;;;;5.45;5.15;;;;;;;8.31;100.00;98550.66;5969940;29;20516;-94
2023/10/27 08:39:33;;;;;;;5.78;5.35;;;;;;;8.31;100.00;98551.44;5955033;29;20533;-94
2023/10/27 08:42:36;;;;;;;5.97;5.40;;;;;;;8.38;100.00;98554.22;5933572;29;20114;-93
2023/10/27 08:45:38;;;;;;;4.68;4.47;;;;;;;8.42;100.00;98555.53;5951091;29;20489;-93
2023/10/27 08:48:42;;;;;;;5.18;4.97;;;;;;;8.46;100.00;98551.69;5945685;29;20091;-93
2023/10/27 08:51:44;;;;;;;5.38;4.97;;;;;;;8.51;100.00;98554.59;5957715;29;20035;-94
2023/10/27 08:54:48;;;;;;;5.30;5.00;;;;;;;8.56;100.00;98552.34;5954643;29;20122;-93
2023/10/27 08:57:54;;;;;;;4.95;4.75;;;;;;;8.62;100.00;98550.91;5951517;29;20043;-94
2023/10/27 09:00:57;;;;;;;6.22;5.72;;;;;;;8.63;100.00;98553.34;5952460;29;20168;-94
2023/10/27 09:04:19;;;;;;;4.97;4.75;;;;;;;8.69;100.00;98551.09;5968027;29;20059;-94
2023/10/27 09:07:24;;;;;;;5.90;5.45;;;;;;;8.74;100.00;98554.81;5945175;29;20057;-95
2023/10/27 09:10:27;;;;;;;5.15;4.93;;;;;;;8.83;100.00;98542.75;5956258;29;20046;-94
2023/10/27 09:13:38;;;;;;;5.50;5.20;;;;;;;8.96;100.00;98552.59;5952222;29;20047;-93
2023/10/27 09:16:43;;;;;;;5.70;4.90;;;;;;;8.99;100.00;98550.53;5954947;29;20051;-94
2023/10/27 09:19:45;;;;;;;4.88;4.57;;;;;;;9.08;100.00;98553.09;5957381;29;20114;-94
2023/10/27 09:23:02;;;;;;;4.72;4.53;;;;;;;9.15;100.00;98551.50;5958260;29;20050;-94
2023/10/27 09:26:04;;;;;;;6.05;5.75;;;;;;;9.24;100.00;98537.59;5972370;29;20135;-94
2023/10/27 09:29:07;;;;;;;6.15;5.72;;;;;;;9.36;100.00;98544.06;5966027;29;20147;-95
2023/10/27 09:32:26;;;;;;;5.72;5.25;;;;;;;9.49;100.00;98553.94;5967747;29;20050;-94
2023/10/27 09:35:28;;;;;;;7.10;6.55;;;;;;;9.54;100.00;98553.41;5956826;29;20599;-95
2023/10/27 09:38:33;;;;;;;6.18;5.60;;;;;;;9.56;100.00;98552.28;5957330;29;20074;-94
2023/10/27 09:41:38;;;;;;;6.72;6.28;;;;;;;9.52;100.00;98556.19;5958041;29;20058;-95
2023/10/27 09:44:42;;;;;;;7.68;7.10;;;;;;;9.51;100.00;98558.91;5978424;29;20051;-94
2023/10/27 09:47:58;;;;;;;6.32;5.93;;;;;;;9.43;100.00;98554.56;5976273;29;20040;-95
2023/10/27 09:51:04;;;;;;;6.65;5.60;;;;;;;9.45;100.00;98555.22;5959958;29;20116;-95
2023/10/27 09:54:10;;;;;;;6.82;6.32;;;;;;;9.46;100.00;98559.38;5960038;29;20039;-95
2023/10/27 09:57:13;;;;;;;9.55;8.65;;;;;;;9.48;100.00;98547.13;5956916;29;20188;-95
2023/10/27 10:00:22;;;;;;;9.35;6.97;;;;;;;9.53;100.00;98551.81;5961586;29;20054;-95
2023/10/27 10:03:27;;;;;;;8.18;7.35;;;;;;;9.66;100.00;98550.34;5960747;29;20045;-96
2023/10/27 10:06:31;;;;;;;5.95;5.60;;;;;;;9.79;100.00;98549.00;5958715;29;20047;-95
2023/10/27 10:09:50;;;;;;;7.65;7.15;;;;;;;9.95;100.00;98545.59;5971630;29;20489;-95
2023/10/27 10:13:05;;;;;;;7.13;6.53;;;;;;;10.00;100.00;98540.72;5958475;29;20031;-95
2023/10/27 10:16:09;;;;;;;8.13;6.63;;;;;;;10.03;100.00;98537.81;5964393;29;20062;-95
2023/10/27 10:19:32;;;;;;;7.07;6.35;;;;;;;10.07;100.00;98539.91;5950646;29;20490;-95
2023/10/27 10:22:41;;;;;;;8.43;7.85;;;;;;;10.10;100.00;98534.38;5967001;29;20107;-96
2023/10/27 10:25:50;;;;;;;8.23;6.65;;;;;;;10.10;100.00;98544.72;5956415;29;20058;-95
2023/10/27 10:29:14;;;;;;;6.90;6.20;;;;;;;10.09;100.00;98540.53;5960361;29;20058;-96
2023/10/27 11:14:47;;;;;;;;;;;;;;;9.78;100.00;98545.63;5956325;29;20047;-95
2023/10/27 11:17:52;;;;;;;6.93;6.28;;;;;;;9.72;100.00;98541.13;5956120;29;20524;-94
2023/10/27 11:20:54;;;;;;;7.85;7.10;;;;;;;9.70;100.00;98540.47;5952648;29;20042;-94
2023/10/27 11:23:56;;;;;;;7.07;6.57;;;;;;;9.70;100.00;98533.53;5957316;29;20043;-95
2023/10/27 11:26:58;;;;;;;8.45;6.78;;;;;;;9.72;100.00;98541.13;5951381;29;20057;-95
2023/10/27 11:30:01;;;;;;;7.57;5.82;;;;;;;9.72;100.00;98535.16;5969982;29;20157;-95
2023/10/27 11:33:08;;;;;;;6.45;6.03;;;;;;;9.70;100.00;98540.47;5950084;29;20047;-95
2023/10/27 11:36:13;;;;;;;5.63;5.32;;;;;;;9.63;100.00;98529.19;5967202;29;20053;-95
2023/10/27 11:39:21;;;;;;;7.50;6.80;;;;;;;9.62;100.00;98525.00;5955348;29;20084;-95
2023/10/27 11:42:23;;;;;;;6.10;5.70;;;;;;;9.62;100.00;98527.59;5948170;29;20478;-96
2023/10/27 11:45:25;;;;;;;6.75;6.32;;;;;;;9.61;100.00;98529.34;5951671;29;20035;-96
2023/10/27 11:48:27;;;;;;;5.80;5.60;;;;;;;9.57;100.00;98533.25;5947378;29;20047;-95
2023/10/27 11:51:32;;;;;;;5.47;5.18;;;;;;;9.57;100.00;98529.84;5952856;29;20066;-95
2023/10/27 11:54:36;;;;;;;5.47;5.15;;;;;;;9.55;100.00;98526.63;5955926;29;20041;-92
2023/10/27 11:57:38;;;;;;;5.95;5.65;;;;;;;9.49;100.00;98526.31;5966091;29;20042;-91
2023/10/27 12:00:40;;;;;;;5.45;5.25;;;;;;;9.52;100.00;98526.97;5953718;29;20077;-91
2023/10/27 12:03:41;;;;;;;8.20;5.70;;;;;;;9.52;100.00;98522.59;5954655;29;20046;-90
2023/10/27 12:06:43;;;;;;;5.60;5.30;;;;;;;9.56;100.00;98523.88;5956268;29;20149;-91
2023/10/27 12:09:45;;;;;;;6.43;5.90;;;;;;;9.63;100.00;98524.03;5962995;29;20053;-92
2023/10/27 12:12:48;;;;;;;5.93;5.53;;;;;;;9.69;100.00;98521.59;5946437;29;20039;-91
2023/10/27 12:15:50;;;;;;;6.30;5.18;;;;;;;9.72;100.00;98520.47;5955913;29;20138;-91
2023/10/27 12:18:52;;;;;;;4.70;4.40;;;;;;;9.67;100.00;98520.16;5953669;29;20054;-91
2023/10/27 12:21:55;;;;;;;5.22;4.93;;;;;;;9.61;100.00;98520.78;5950451;29;20050;-91
2023/10/27 12:24:57;;;;;;;5.10;4.80;;;;;;;9.53;100.00;98523.41;5951971;29;20067;-91
2023/10/27 12:27:59;;;;;;;6.40;6.00;;;;;;;9.48;100.00;98519.53;5950516;29;20051;-91
2023/10/27 12:31:02;;;;;;;5.95;5.55;;;;;;;9.49;100.00;98515.19;5950281;29;20376;-92
2023/10/27 12:34:04;;;;;;;6.30;5.90;;;;;;;9.47;100.00;98520.50;5952812;29;20078;-92
2023/10/27 12:37:07;;;;;;;4.80;4.50;;;;;;;9.48;100.00;98519.53;5952585;29;20506;-92
2023/10/27 12:40:12;;;;;;;5.40;5.13;;;;;;;9.48;100.00;98516.13;5949813;29;20168;-92
2023/10/27 12:43:15;;;;;;;4.82;4.63;;;;;;;9.51;100.00;98515.00;5958701;29;20128;-92
2023/10/27 12:46:17;;;;;;;5.65;5.38;;;;;;;9.50;100.00;98521.94;5951012;29;20525;-91
2023/10/27 12:49:18;;;;;;;5.53;5.13;;;;;;;9.53;100.00;98521.63;5967216;29;20047;-91
2023/10/27 12:52:20;;;;;;;6.18;5.88;;;;;;;9.54;100.00;98518.09;5952801;29;20508;-92
2023/10/27 12:55:22;;;;;;;6.43;5.20;;;;;;;9.56;100.00;98518.69;5957327;29;20523;-92
2023/10/27 12:58:25;;;;;;;5.03;4.78;;;;;;;9.58;100.00;98519.34;5952045;29;20156;-91
2023/10/27 13:01:27;;;;;;;5.57;5.32;;;;;;;9.64;100.00;98520.50;5972463;29;20077;-91
2023/10/27 13:04:29;;;;;;;4.93;4.72;;;;;;;9.68;100.00;98519.16;5958059;29;20047;-92
2023/10/27 13:07:31;;;;;;;5.60;5.25;;;;;;;9.74;100.00;98509.94;5958398;29;20043;-93
2023/10/27 13:10:34;;;;;;;6.97;5.40;;;;;;;9.78;100.00;98512.03;5956644;29;20058;-92
2023/10/27 13:13:36;;;;;;;5.05;4.85;;;;;;;9.84;100.00;98520.91;5942516;29;20118;-93
2023/10/27 13:16:39;;;;;;;5.75;5.43;;;;;;;9.88;100.00;98520.41;5957025;29;20054;-93
2023/10/27 13:19:42;;;;;;;4.30;4.15;;;;;;;9.85;100.00;98517.34;5955333;29;20176;-93
2023/10/27 13:22:47;;;;;;;5.53;5.13;;;;;;;9.88;100.00;98519.59;5958360;29;20047;-93
2023/10/27 13:25:49;;;;;;;5.05;4.65;;;;;;;9.89;100.00;98516.06;5952841;29;20442;-93
2023/10/27 13:28:51;;;;;;;4.97;4.68;;;;;;;9.95;100.00;98517.16;5970740;29;20047;-93
2023/10/27 13:31:53;;;;;;;5.53;5.20;;;;;;;9.99;100.00;98518.47;5965111;29;20057;-93
2023/10/27 13:34:57;;;;;;;3.95;3.85;;;;;;;9.99;100.00;98519.25;5955875;29;20085;-93
2023/10/27 13:38:06;;;;;;;6.00;4.90;;;;;;;10.02;100.00;98520.69;5947750;29;20641;-93
2023/10/27 13:41:23;;;;;;;5.55;5.32;;;;;;;9.95;100.00;98523.13;5953401;29;20051;-93
2023/10/27 13:44:27;;;;;;;6.30;5.95;;;;;;;9.96;100.00;98514.41;5970385;29;20593;-92
2023/10/27 13:47:32;;;;;;;4.75;4.55;;;;;;;9.96;100.00;98522.16;5952833;29;20058;-93
2023/10/27 13:50:34;;;;;;;4.57;4.35;;;;;;;9.92;100.00;98523.47;5955378;29;20530;-93
2023/10/27 13:53:37;;;;;;;3.83;3.72;;;;;;;9.94;100.00;98524.13;5946076;29;20130;-93
2023/10/27 13:56:40;;;;;;;6.47;4.93;;;;;;;9.96;100.00;98523.94;5970059;29;20082;-93
2023/10/27 13:59:42;;;;;;;6.22;5.82;;;;;;;9.94;100.00;98524.13;5955496;29;20171;-93
2023/10/27 14:02:44;;;;;;;4.85;4.63;;;;;;;9.90;100.00;98526.22;5952752;29;20156;-93
2023/10/27 14:05:49;;;;;;;5.53;5.22;;;;;;;9.89;100.00;98528.97;5954309;29;20051;-93
2023/10/27 14:08:52;;;;;;;5.82;5.43;;;;;;;9.88;100.00;98528.16;5950818;29;20039;-93
2023/10/27 14:11:53;;;;;;;5.57;5.22;;;;;;;9.83;100.00;98533.00;5948094;29;20383;-93
2023/10/27 14:14:55;;;;;;;4.18;3.97;;;;;;;9.82;100.00;98530.63;5952036;29;20437;-93
2023/10/27 14:17:57;;;;;;;3.80;3.70;;;;;;;9.76;100.00;98532.06;5960451;29;20050;-92
2023/10/27 14:21:12;;;;;;;4.72;4.53;;;;;;;9.72;100.00;98530.00;5955196;29;20054;-93
2023/10/27 14:24:17;;;;;;;4.95;4.75;;;;;;;9.67;100.00;98535.66;5954175;29;20507;-94
2023/10/27 14:27:20;;;;;;;5.93;5.63;;;;;;;9.64;100.00;98529.03;5943979;29;20050;-93
2023/10/27 14:30:22;;;;;;;5.32;5.10;;;;;;;9.62;100.00;98538.72;5968454;29;20074;-94
2023/10/27 14:33:24;;;;;;;4.90;4.70;;;;;;;9.62;100.00;98533.56;5953606;29;20411;-94
2023/10/27 14:36:27;;;;;;;5.53;5.13;;;;;;;9.60;100.00;98540.66;5952810;29;20109;-94
2023/10/27 14:39:29;;;;;;;5.22;4.90;;;;;;;9.56;100.00;98539.34;5954321;29;20074;-93
2023/10/27 14:42:31;;;;;;;4.80;4.60;;;;;;;9.54;100.00;98541.31;5952977;29;20039;-94
2023/10/27 14:45:33;;;;;;;6.13;5.60;;;;;;;9.52;100.00;98542.47;5955122;29;20493;-94
2023/10/27 14:48:35;;;;;;;5.35;4.95;;;;;;;9.48;100.00;98539.38;5966010;29;20561;-94
2023/10/27 14:51:37;;;;;;;5.10;4.82;;;;;;;9.51;100.00;98546.00;5952046;29;20051;-94
2023/10/27 14:54:40;;;;;;;6.57;5.72;;;;;;;9.48;100.00;98547.94;5936831;29;20051;-94
2023/10/27 14:57:45;;;;;;;4.95;4.68;;;;;;;9.47;100.00;98543.75;5950357;29;20074;-95
2023/10/27 15:00:46;;;;;;;5.18;4.97;;;;;;;9.48;100.00;98535.00;5955809;29;20051;-94
2023/10/27 15:03:48;;;;;;;4.55;4.35;;;;;;;9.47;100.00;98542.94;5957069;29;20171;-94
2023/10/27 15:06:51;;;;;;;5.43;5.07;;;;;;;9.45;100.00;98540.50;5948504;29;20506;-93